METAR Data
IDs: Format: Raw Decoded Include TAF

Data at: 0219 UTC 24 Sep 2018

KGBK 240215Z AUTO VRB03KT 6SM HZ BKN050 29/24 A2992 RMK A01
KGBK 240155Z AUTO VRB05KT 7SM CLR 29/25 A2991 RMK A01
KGBK 240135Z AUTO 00000KT 5SM HZ CLR 29/25 A2990 RMK A01
KGBK 240115Z AUTO VRB05KT 4SM HZ CLR 29/25 A2990 RMK A01
KGBK 240055Z AUTO 00000KT 6SM HZ CLR 29/24 A2990 RMK A01
KGBK 240035Z AUTO VRB04KT 10SM CLR 29/24 A2989 RMK A01
KGBK 240015Z AUTO 08005KT 8SM CLR 30/24 A2989 RMK A01
KGBK 232355Z AUTO 00000KT 10SM CLR 31/24 A2989 RMK A01
KGBK 232335Z AUTO 00000KT 10SM CLR 32/24 A2989 RMK A01
KGBK 232315Z AUTO 00000KT 10SM CLR 31/24 A2989 RMK A01
KGBK 232255Z AUTO 00000KT 10SM CLR 31/24 A2988 RMK A01
KGBK 232235Z AUTO 00000KT 10SM CLR 30/24 A2989 RMK A01
KGBK 232215Z AUTO 00000KT 10SM FEW020 30/24 A2988 RMK A01
KGBK 232155Z AUTO 00000KT 10SM FEW020 30/24 A2989 RMK A01
KGBK 232135Z AUTO 24004KT 10SM CLR 29/24 A2988 RMK A01
KGBK 232115Z AUTO 27003KT 10SM CLR 31/24 A2989 RMK A01
KGBK 232055Z AUTO 26004KT 10SM CLR 30/24 A2989 RMK A01
KGBK 232035Z AUTO 26006KT 10SM FEW024 30/24 A2990 RMK A01
KGBK 232015Z AUTO 26007KT 10SM SCT023 30/24 A2990 RMK A01
KGBK 231955Z AUTO 24008KT 10SM CLR 29/23 A2991 RMK A01
KGBK 231935Z AUTO 24010KT 10SM CLR 29/23 A2992 RMK A01
KGBK 231915Z AUTO 23011KT 10SM FEW019 SCT037 BKN055 29/23 A2992 RMK A01
KGBK 231855Z AUTO 23008KT 10SM BKN019 BKN023 BKN038 29/25 A2993 RMK A01
KGBK 231835Z AUTO 00000KT 10SM CLR 30/25 A2993 RMK A01
KGBK 231815Z AUTO 00000KT 10SM CLR 30/25 A2994 RMK A01
KGBK 231755Z AUTO 22003KT 10SM CLR 30/25 A2996 RMK A01
KGBK 231735Z AUTO 00000KT 10SM CLR 29/25 A2997 RMK A01
KGBK 231715Z AUTO 21004KT 10SM CLR 29/25 A2997 RMK A01
KGBK 231655Z AUTO 20004KT 10SM FEW095 29/25 A2997 RMK A01
KGBK 231635Z AUTO 21003KT 10SM BKN095 30/25 A2998 RMK A01
KGBK 231615Z AUTO 00000KT 10SM FEW090 29/25 A2997 RMK A01
KGBK 231555Z AUTO 00000KT CLR 29/24 A2997 RMK A01
KGBK 231535Z AUTO 00000KT 10SM CLR 28/23 A2997 RMK A01
KGBK 231515Z AUTO 21004KT 10SM FEW023 SCT070 SCT090 28/24 A2997 RMK A01
KGBK 231455Z AUTO 17012KT 9SM BKN023 BKN070 BKN090 27/23 A2997 RMK A01
KGBK 231435Z AUTO 18006KT 10SM FEW024 29/24 A2997 RMK A01
KGBK 231415Z AUTO 16004KT 10SM CLR 29/24 A2996 RMK A01
KGBK 231355Z AUTO VRB04KT 10SM FEW028 29/24 A2995 RMK A01
KGBK 231335Z AUTO 18003KT 10SM SCT026 29/24 A2995 RMK A01
KGBK 231315Z AUTO 18003KT 10SM CLR 28/23 A2994 RMK A01
KGBK 231255Z AUTO 20004KT 10SM CLR 28/24 A2994 RMK A01
KGBK 231235Z AUTO 18005KT 10SM CLR 28/24 A2994 RMK A01
KGBK 231215Z AUTO 21004KT 10SM CLR 28/24 A2993 RMK A01
KGBK 231155Z AUTO 18004KT 10SM CLR 28/24 A2993 RMK A01
KGBK 231135Z AUTO 17003KT 10SM CLR 28/24 A2992 RMK A01
KGBK 231115Z AUTO 00000KT 10SM CLR 28/24 A2991 RMK A01
KGBK 231055Z AUTO 12004KT 10SM CLR 28/24 A2991 RMK A01
KGBK 231035Z AUTO 00000KT 7SM CLR 28/24 A2991 RMK A01
KGBK 231015Z AUTO 14004KT 10SM CLR 28/24 A2990 RMK A01
KGBK 230955Z AUTO 16004KT 10SM CLR 28/24 A2990 RMK A01
KGBK 230935Z AUTO 15004KT 10SM CLR 28/24 A2991 RMK A01
KGBK 230915Z AUTO 17004KT 10SM CLR 28/24 A2991 RMK A01
KGBK 230855Z AUTO 16005KT 10SM CLR 28/24 A2991 RMK A01
KGBK 230835Z AUTO 15004KT 10SM CLR 28/24 A2992 RMK A01
KGBK 230815Z AUTO VRB03KT 10SM CLR 28/24 A2991 RMK A01
KGBK 230755Z AUTO 00000KT 10SM CLR 28/24 A2992 RMK A01
KGBK 230735Z AUTO 14003KT 9SM CLR 28/24 A2992 RMK A01
KGBK 230715Z AUTO 00000KT 8SM CLR 29/24 A2993 RMK A01
KGBK 230655Z AUTO 08004KT 10SM FEW044 29/24 A2993 RMK A01
KGBK 230635Z AUTO 08005KT 10SM SCT043 29/24 A2994 RMK A01
KGBK 230615Z AUTO 09006KT 10SM SCT042 SCT048 29/24 A2994 RMK A01
KGBK 230555Z AUTO 08006KT 10SM FEW030 FEW037 BKN045 29/23 A2995 RMK A01
KGBK 230535Z AUTO 09007KT 10SM SCT031 BKN038 BKN045 29/24 A2995 RMK A01
KGBK 230515Z AUTO VRB06KT 10SM SCT035 BKN042 29/24 A2995 RMK A01
KGBK 230455Z AUTO VRB06KT 310V120 10SM BKN035 BKN041 30/24 A2995 RMK A01
KGBK 230435Z AUTO 08008KT 010V090 10SM BKN036 OVC044 30/24 A2996 RMK A01
KGBK 230410Z AUTO 08010KT 10SM BKN036 OVC044 30/24 A2996 RMK A01
KGBK 230355Z AUTO 09010KT 10SM BKN038 BKN045 BKN120 30/24 A2996 RMK A01
KGBK 230335Z AUTO 07007G12KT 360V100 10SM BKN040 BKN050 OVC120 30/24 A2996 RMK A01
KGBK 230315Z AUTO 07007KT 010V090 10SM SCT041 BKN046 BKN120 30/23 A2997 RMK A01
KGBK 230255Z AUTO 08010KT 10SM FEW034 BKN046 30/24 A2997 RMK A01
KGBK 230235Z AUTO VRB06KT 10SM FEW046 SCT120 30/23 A2997 RMK A01
KGBK 230215Z AUTO VRB06KT 10SM FEW120 29/23 A2996 RMK A01
KGBK 230155Z AUTO VRB03KT 10SM CLR 28/23 A2996 RMK A01
KGBK 230135Z AUTO 04006KT 10SM CLR 28/24 A2995 RMK A01
KGBK 230115Z AUTO VRB04KT 10SM FEW100 28/24 A2994 RMK A01
KGBK 230055Z AUTO 00000KT 10SM FEW070 FEW095 SCT120 28/24 A2994 RMK A01
KGBK 230035Z AUTO 00000KT 10SM BKN110 28/24 A2994 RMK A01
KGBK 230015Z AUTO VRB03G11KT 10SM FEW036 SCT043 OVC110 28/24 A2994 RMK A01
KGBK 222355Z AUTO 00000KT 10SM FEW035 FEW048 SCT055 30/21 A2994 RMK A01
KGBK 222335Z AUTO 31005KT 10SM FEW090 30/20 A2994 RMK A01
KGBK 222315Z AUTO 30011KT 10SM CLR 28/21 A2993 RMK A01
KGBK 222255Z AUTO 30018G23KT 9SM FEW050 FEW075 SCT095 27/22 A2992 RMK A01
KGBK 222235Z AUTO 29023KT 6SM HZ SCT025 BKN050 OVC095 27/24 A2992 RMK A01
KGBK 222215Z AUTO 31012G18KT 10SM SCT025 BKN080 31/24 A2993 RMK A01
KGBK 222155Z AUTO 00000KT 10SM FEW024 FEW033 SCT080 30/25 A2993 RMK A01
KGBK 222135Z AUTO 00000KT 10SM CLR 30/24 A2993 RMK A01
KGBK 222115Z AUTO 14004KT 10SM CLR 30/24 A2992 RMK A01
KGBK 222055Z AUTO 17003KT 10SM CLR 30/24 A2993 RMK A01
KGBK 222035Z AUTO VRB04KT 10SM CLR 30/24 A2994 RMK A01
KGBK 222015Z AUTO 14003KT 10SM CLR 30/24 A2994 RMK A01
KGBK 221955Z AUTO 00000KT 10SM CLR 30/24 A2995 RMK A01
KGBK 221935Z AUTO 00000KT 10SM CLR 31/24 A2996 RMK A01
KGBK 221915Z AUTO 00000KT 10SM FEW025 31/24 A2996 RMK A01
KGBK 221855Z AUTO 14004KT 7SM CLR 30/24 A2997 RMK A01
KGBK 221835Z AUTO 00000KT 10SM CLR 30/24 A2997 RMK A01
KGBK 221815Z AUTO 14004KT 10SM CLR 30/24 A2998 RMK A01
KGBK 221755Z AUTO 14003KT 10SM CLR 30/24 A2999 RMK A01
KGBK 221735Z AUTO 17005KT 10SM CLR 29/24 A3000 RMK A01
KGBK 221715Z AUTO 16005KT 10SM CLR 29/24 A3000 RMK A01
KGBK 221655Z AUTO 15003KT 10SM CLR 29/24 A3000 RMK A01
KGBK 221635Z AUTO 15005KT 10SM CLR 29/24 A3000 RMK A01
KGBK 221615Z AUTO 16005KT 10SM FEW022 29/24 A3000 RMK A01
KGBK 221555Z AUTO 14005KT 10SM CLR 30/24 A3000 RMK A01
KGBK 221535Z AUTO 15005KT 10SM CLR 29/25 A3000 RMK A01
KGBK 221515Z AUTO 13004KT 10SM CLR 29/24 A3000 RMK A01
KGBK 221455Z AUTO 13004KT 10SM CLR 30/24 A3000 RMK A01
KGBK 221435Z AUTO 13004KT 10SM CLR 29/25 A3000 RMK A01